Flight Track Log - Related Links

Times and Time Zones

All times are in EDT time to prevent confusion due to time zone crossing. See the N82531 flight status page for this flight to view local times or setup timezone preferences in your user account.

Time Position Orientation Groundspeed Altitude Reporting Facility
EDT Latitude Longitude Course Direction KTS MPH feet Rate Location/Type
Fri 08:53:22 AM 43.3700 -84.7131 301° West 108 124 1,900  Level Cleveland Center
Fri 08:57:23 AM 43.4125 -84.8103 296° West 71 82 3,600 412 Climbing Cleveland Center
Fri 09:01:23 AM 43.4464 -84.9069 296° West 78 90 5,200 326 Climbing Cleveland Center
Fri 09:08:08 AM 43.5122 -85.0919 297° West 93 107 7,100 271 Climbing Minneapolis Center
Fri 09:09:08 AM 43.5225 -85.1192 298° West 98 113 7,300 250 Climbing Minneapolis Center
Fri 09:10:08 AM 43.5328 -85.1464 299° West 92 106 7,600 248 Climbing Minneapolis Center
Fri 09:11:09 AM 43.5458 -85.1792 287° West 92 106 7,800 250 Climbing Minneapolis Center
Fri 09:12:08 AM 43.5519 -85.2069 292° West 92 106 8,100 252 Climbing Minneapolis Center
Fri 09:13:08 AM 43.5606 -85.2372 297° West 87 100 8,300 200 Climbing Minneapolis Center
Fri 09:14:08 AM 43.5708 -85.2644 293° West 87 100 8,500 200 Climbing Minneapolis Center
Fri 09:15:08 AM 43.5792 -85.2919 290° West 87 100 8,700 150 Climbing Minneapolis Center
Fri 09:16:08 AM 43.5878 -85.3253 292° West 87 100 8,800 100 Climbing Minneapolis Center
Fri 09:17:08 AM 43.5961 -85.3531 296° West 87 100 8,900 100 Climbing Minneapolis Center
Fri 09:18:08 AM 43.6067 -85.3831 291° West 87 100 9,000 50 Climbing Minneapolis Center
Fri 09:19:08 AM 43.6153 -85.4136 296° West 87 100 9,000 100 Level Minneapolis Center
Fri 09:20:08 AM 43.6258 -85.4436 302° West 87 100 9,200 150 Climbing Minneapolis Center
Fri 09:21:08 AM 43.6381 -85.4708 291° West 87 100 9,300 149 Climbing Minneapolis Center
Fri 09:22:09 AM 43.6467 -85.5011 295° West 87 100 9,500 150 Climbing Minneapolis Center
Fri 09:23:08 AM 43.6569 -85.5314 295° West 87 100 9,600 151 Climbing Minneapolis Center
Fri 09:24:08 AM 43.6678 -85.5644 291° West 87 100 9,800 150 Climbing Minneapolis Center
Fri 09:25:08 AM 43.6761 -85.5950 290° West 87 100 9,900 99 Climbing Minneapolis Center
Fri 09:26:09 AM 43.6847 -85.6283 300° West 87 100 10,000 100 Climbing Minneapolis Center
Fri 09:27:08 AM 43.6972 -85.6583 296° West 87 100 10,100 50 Climbing Minneapolis Center
Fri 09:28:08 AM 43.7078 -85.6886 298° West 87 100 10,100 50 Level Minneapolis Center
Fri 09:29:08 AM 43.7206 -85.7214 295° West 87 100 10,200 50 Climbing Minneapolis Center
Fri 09:30:09 AM 43.7336 -85.7600 298° West 92 106 10,200 -50 Level Minneapolis Center
Fri 09:31:08 AM 43.7464 -85.7928 296° West 97 112 10,100 -50 Descending Minneapolis Center
Fri 09:32:08 AM 43.7592 -85.8286 296° West 102 117 10,100  Level Minneapolis Center
Fri 09:33:08 AM 43.7719 -85.8644 298° West 102 117 10,100  Level Minneapolis Center
Fri 09:34:08 AM 43.7847 -85.8972 296° West 107 123 10,100 -50 Level Minneapolis Center
Fri 09:35:08 AM 43.7975 -85.9331 294° West 107 123 10,000  Descending Minneapolis Center
Fri 09:36:08 AM 43.8081 -85.9664 296° West 102 117 10,100 50 Climbing Minneapolis Center
Fri 09:37:08 AM 43.8186 -85.9967 289° West 102 117 10,100  Level Minneapolis Center
Fri 09:38:08 AM 43.8269 -86.0303 296° West 102 117 10,100  Level Minneapolis Center
Fri 09:39:09 AM 43.8375 -86.0606 294° West 97 112 10,100  Level Minneapolis Center
Fri 09:40:08 AM 43.8481 -86.0939 294° West 97 112 10,100  Level Minneapolis Center
Fri 09:41:08 AM 43.8586 -86.1272 292° West 97 112 10,100  Level Minneapolis Center
Fri 09:42:08 AM 43.8692 -86.1633 296° West 97 112 10,100  Level Minneapolis Center
Fri 09:43:08 AM 43.8819 -86.1992 288° West 97 112 10,100 -50 Level Minneapolis Center
Fri 09:44:08 AM 43.8906 -86.2356 298° West 102 117 10,000 -50 Descending Minneapolis Center
Fri 09:45:08 AM 43.9033 -86.2686 289° West 102 117 10,000 50 Level Minneapolis Center
Fri 09:46:08 AM 43.9117 -86.3022 290° West 102 117 10,100 50 Climbing Minneapolis Center
Fri 09:47:08 AM 43.9197 -86.3331 294° West 102 117 10,100 -50 Level Minneapolis Center
Fri 09:48:08 AM 43.9303 -86.3664 294° West 97 112 10,000 -50 Descending Minneapolis Center
Fri 09:49:08 AM 43.9408 -86.3997 295° West 97 112 10,000  Level Minneapolis Center
Fri 09:50:09 AM 43.9511 -86.4303 289° West 92 106 10,000 50 Level Minneapolis Center
Fri 09:51:09 AM 43.9594 -86.4639 285° West 92 106 10,100  Climbing Minneapolis Center
Fri 09:52:08 AM 43.9658 -86.4978 284° West 86 99 10,000  Descending Minneapolis Center
Fri 09:53:08 AM 43.9719 -86.5317 275° West 86 99 10,100 100 Climbing Minneapolis Center
Fri 09:54:08 AM 43.9742 -86.5661 275° West 91 105 10,200  Climbing Minneapolis Center
Fri 09:55:08 AM 43.9764 -86.6033 280° West 91 105 10,100 -50 Descending Minneapolis Center
Fri 09:56:09 AM 43.9806 -86.6375 275° West 96 110 10,100  Level Minneapolis Center
Fri 09:57:08 AM 43.9828 -86.6750 275° West 101 116 10,100  Level Minneapolis Center
Fri 09:58:09 AM 43.9853 -86.7122 274° West 101 116 10,100  Level Minneapolis Center
Fri 09:59:08 AM 43.9872 -86.7467 275° West 101 116 10,100  Level Minneapolis Center
Fri 10:00:08 AM 43.9892 -86.7811 275° West 101 116 10,100  Level Minneapolis Center
Fri 10:01:08 AM 43.9914 -86.8183 270° West 101 116 10,100  Level Minneapolis Center
Fri 10:02:08 AM 43.9914 -86.8503 268° West 101 116 10,100  Level Minneapolis Center
Fri 10:03:09 AM 43.9908 -86.8792 275° West 95 109 10,100 -149 Level Minneapolis Center
Fri 10:04:09 AM 43.9925 -86.9050 274° West 83 96 9,800 -303 Descending Minneapolis Center
Fri 10:05:08 AM 43.9939 -86.9308 274° West 73 84 9,500 -454 Descending Minneapolis Center
Fri 10:06:08 AM 43.9947 -86.9453 110° East 62 71 8,900 -744 Descending Minneapolis Center
Fri 10:07:09 AM 43.9867 -86.9142 108° East 29 33 8,000 -942 Descending Minneapolis Center
Fri 10:08:09 AM 43.9756 -86.8664 60° Northeast 76 87 7,000 -1,008 Descending Minneapolis Center
Fri 10:09:08 AM 43.9919 -86.8269 60° Northeast 94 108 6,000 -1,008 Descending Minneapolis Center
Fri 10:10:08 AM 44.0083 -86.7875 54° Northeast 111 128 5,000 -793 Descending Minneapolis Center
Fri 10:11:09 AM 44.0289 -86.7475 83° East 122 140 4,400 -900 Descending Minneapolis Center
Fri 10:12:08 AM 44.0339 -86.6922 87° East 127 146 3,200 -1,160 Descending Minneapolis Center
Fri 10:13:08 AM 44.0356 -86.6486 88° East 121 139 2,100 -700 Descending Minneapolis Center
Fri 10:14:08 AM 44.0369 -86.6022 88° East 113 130 1,800 -300 Descending Minneapolis Center

Login

Don't have an account? Register now (free) for customized features, flight alerts, and more!